Time;durP1;ratioP1;P1;durP2;ratioP2;P2;SDS_P1;SDS_P2;PMS_P1;PMS_P2;Temp;Humidity;BMP_temperature;BMP_pressure;BME280_temperature;BME280_humidity;BME280_pressure;Samples;Min_cycle;Max_cycle;Signal;HPM_P1;HPM_P2
2022/04/16 00:02:01;;;;;;;3.58;2.65;;;11.10;82.80;;;10.07;61.96;98267.09;5072571;28;20397;-80
2022/04/16 00:04:27;;;;;;;4.15;2.88;;;11.00;82.60;;;10.09;61.50;98268.44;5072796;28;20384;-80
2022/04/16 00:06:53;;;;;;;6.03;3.27;;;11.00;82.30;;;10.02;61.53;98272.22;5072945;28;20431;-80
2022/04/16 00:09:20;;;;;;;3.42;2.60;;;11.00;82.30;;;9.96;61.71;98281.06;5072792;28;20429;-79
2022/04/16 00:11:46;;;;;;;5.25;2.88;;;10.90;82.50;;;9.88;61.92;98278.75;5072762;28;20410;-81
2022/04/16 00:14:12;;;;;;;3.42;2.67;;;10.80;82.60;;;9.80;62.26;98279.03;5071552;28;20412;-80
2022/04/16 00:16:38;;;;;;;2.88;2.58;;;10.80;83.10;;;9.77;62.28;98280.31;5072712;28;20494;-80
2022/04/16 00:19:04;;;;;;;3.30;2.58;;;10.70;83.10;;;9.70;63.03;98269.81;5072345;28;20400;-79
2022/04/16 00:21:30;;;;;;;3.78;2.70;;;10.70;83.80;;;9.69;62.49;98272.69;5072003;28;20895;-80
2022/04/16 00:23:57;;;;;;;2.83;2.38;;;10.60;83.90;;;9.55;63.91;98273.88;5072311;28;20391;-79
2022/04/16 00:26:24;;;;;;;3.00;2.40;;;10.60;85.10;;;9.51;63.94;98270.06;5072426;28;20743;-79
2022/04/16 00:28:50;;;;;;;3.30;2.50;;;10.50;85.70;;;9.47;64.32;98272.34;5054295;28;20448;-80
2022/04/16 00:31:16;;;;;;;5.13;2.70;;;10.50;86.00;;;9.43;64.53;98273.81;5071912;28;20402;-80
2022/04/16 00:33:42;;;;;;;3.30;2.70;;;10.40;86.60;;;9.40;64.46;98276.13;5071132;28;20775;-80
2022/04/16 00:36:08;;;;;;;3.75;2.55;;;10.40;86.80;;;9.36;64.30;98275.72;5072064;28;20768;-82
2022/04/16 00:38:34;;;;;;;2.67;2.42;;;10.40;86.50;;;9.32;64.88;98274.56;5071976;28;20416;-81
2022/04/16 00:41:02;;;;;;;3.20;2.65;;;10.30;86.80;;;9.23;66.12;98274.06;5071527;28;20406;-80
2022/04/16 00:43:30;;;;;;;2.78;2.40;;;10.20;88.40;;;9.23;65.42;98262.69;5072146;28;20747;-80
2022/04/16 00:45:56;;;;;;;3.10;2.80;;;10.20;88.20;;;9.12;66.81;98263.41;5070601;28;20848;-80
2022/04/16 00:48:23;;;;;;;3.70;2.60;;;10.10;89.80;;;9.06;66.91;98269.56;5071781;28;20399;-80
2022/04/16 00:50:51;;;;;;;3.20;2.60;;;10.10;90.00;;;9.05;66.11;98276.69;5071309;28;20449;-80
2022/04/16 00:53:18;;;;;;;3.20;2.50;;;10.10;89.80;;;9.03;66.48;98267.34;5071603;28;20444;-80
2022/04/16 00:55:44;;;;;;;3.72;2.70;;;10.00;90.00;;;8.97;66.96;98269.03;5071551;28;20423;-80
2022/04/16 00:58:10;;;;;;;4.20;2.70;;;10.00;90.40;;;8.91;67.60;98262.81;5071822;28;20494;-81
2022/04/16 01:00:38;;;;;;;4.50;2.70;;;10.00;90.80;;;8.97;66.64;98268.22;5071066;28;20402;-79
2022/04/16 01:03:05;;;;;;;2.85;2.53;;;10.00;90.60;;;9.03;65.60;98259.44;5071364;28;20412;-81
2022/04/16 01:05:31;;;;;;;3.60;2.80;;;10.00;90.10;;;9.00;66.81;98268.63;5071571;28;20404;-81
2022/04/16 01:08:02;;;;;;;3.72;2.70;;;10.00;90.40;;;9.08;64.63;98265.69;5071590;28;20411;-80
2022/04/16 01:10:31;;;;;;;3.05;2.58;;;10.00;89.20;;;9.14;64.35;98270.09;5071028;28;20433;-78
2022/04/16 01:12:59;;;;;;;3.00;2.40;;;10.10;88.80;;;9.18;64.12;98265.97;5071254;28;20444;-78
2022/04/16 01:15:27;;;;;;;3.33;2.72;;;10.10;88.70;;;9.15;65.06;98262.97;5071291;28;20415;-80
2022/04/16 01:17:54;;;;;;;4.50;2.40;;;10.20;88.70;;;9.19;64.90;98262.31;5071029;28;20492;-81
2022/04/16 01:20:22;;;;;;;3.03;2.45;;;10.20;88.70;;;9.18;65.50;98263.31;5070761;28;20423;-81
2022/04/16 01:22:50;;;;;;;2.72;2.35;;;10.20;89.40;;;9.23;65.37;98262.69;5071309;28;20396;-80
2022/04/16 01:25:17;;;;;;;3.28;2.20;;;10.20;88.90;;;9.28;63.05;98260.97;5071419;28;20966;-80
2022/04/16 01:27:46;;;;;;;2.65;2.45;;;10.20;87.60;;;9.26;63.21;98260.38;5071056;28;20411;-80
2022/04/16 01:30:13;;;;;;;2.50;2.30;;;10.20;87.20;;;9.18;64.64;98262.50;5070644;28;20491;-80
2022/04/16 01:32:40;;;;;;;2.78;2.47;;;10.20;88.00;;;9.23;63.71;98252.13;5070872;28;20403;-80
2022/04/16 01:35:07;;;;;;;2.60;2.40;;;10.20;87.70;;;9.21;64.55;98254.16;5070892;28;20459;-80
2022/04/16 01:37:35;;;;;;;3.20;2.50;;;10.20;88.20;;;9.20;63.99;98255.19;5070853;28;20396;-80
2022/04/16 01:40:05;;;;;;;4.55;2.55;;;10.20;88.10;;;9.16;64.34;98254.84;5070685;28;20404;-80
2022/04/16 01:42:32;;;;;;;3.80;2.90;;;10.20;87.70;;;9.18;63.37;98260.69;5070569;28;20412;-80
2022/04/16 01:45:00;;;;;;;3.33;2.40;;;10.10;87.10;;;9.04;64.66;98261.84;5068995;28;20747;-80
2022/04/16 01:47:26;;;;;;;2.78;2.53;;;10.00;87.90;;;9.07;63.46;98264.06;5070284;28;20441;-80
2022/04/16 01:49:52;;;;;;;2.83;2.53;;;10.00;87.40;;;8.98;63.85;98259.28;5070597;28;20453;-80
2022/04/16 01:52:18;;;;;;;2.45;2.20;;;9.90;87.10;;;8.85;64.83;98263.69;5070318;28;20403;-79
2022/04/16 01:54:44;;;;;;;2.90;2.60;;;9.90;88.40;;;8.87;64.28;98269.53;5069317;28;20507;-80
2022/04/16 01:57:11;;;;;;;3.58;2.40;;;9.80;88.10;;;8.74;65.42;98274.16;5070765;28;20541;-80
2022/04/16 01:59:37;;;;;;;2.58;2.38;;;9.80;89.20;;;8.69;65.63;98279.28;5070712;28;20421;-80
2022/04/16 02:02:03;;;;;;;3.30;2.40;;;9.70;89.50;;;8.63;65.96;98283.59;5068847;28;20904;-80
2022/04/16 02:04:31;;;;;;;3.50;2.60;;;9.60;90.10;;;8.61;65.40;98285.63;5070613;28;20411;-79
2022/04/16 02:06:57;;;;;;;2.83;2.60;;;9.60;89.70;;;8.57;65.43;98281.00;5070419;28;20487;-80
2022/04/16 02:09:23;;;;;;;2.90;2.40;;;9.60;89.50;;;8.46;66.44;98287.78;5070571;28;20404;-80
2022/04/16 02:11:49;;;;;;;3.20;2.90;;;9.50;90.30;;;8.37;67.92;98291.72;5069892;28;20407;-80
2022/04/16 02:14:16;;;;;;;4.15;2.85;;;9.40;91.10;;;8.33;68.07;98285.25;5070189;28;20430;-80
2022/04/16 02:16:42;;;;;;;3.33;2.60;;;9.40;91.50;;;8.21;69.19;98279.00;5070188;28;20403;-80
2022/04/16 02:19:09;;;;;;;4.70;2.75;;;9.30;92.00;;;8.13;69.51;98280.88;5070265;28;20403;-80
2022/04/16 02:21:35;;;;;;;4.68;2.53;;;9.20;92.50;;;8.13;68.78;98272.97;5069959;28;20434;-80
2022/04/16 02:24:01;;;;;;;3.10;2.60;;;9.20;92.30;;;8.02;70.21;98273.66;5070250;28;20478;-80
2022/04/16 02:26:27;;;;;;;4.70;2.90;;;9.10;92.90;;;7.91;70.99;98268.25;5070289;28;20400;-80
2022/04/16 02:28:53;;;;;;;3.17;2.80;;;9.00;93.50;;;7.84;70.63;98264.84;5070165;28;20947;-80
2022/04/16 02:31:23;;;;;;;4.10;2.70;;;9.00;93.40;;;7.83;70.70;98269.31;5069773;28;20482;-79
2022/04/16 02:33:49;;;;;;;3.50;3.08;;;8.90;93.60;;;7.72;70.97;98267.34;5068724;28;20407;-80
2022/04/16 02:36:16;;;;;;;4.63;2.97;;;8.80;93.70;;;7.63;71.04;98276.53;5070199;28;20403;-80
2022/04/16 02:38:42;;;;;;;4.23;3.00;;;8.70;93.80;;;7.51;71.39;98272.94;5070088;28;20482;-82
2022/04/16 02:41:08;;;;;;;5.60;2.80;;;8.70;94.10;;;7.43;71.82;98275.81;5069719;28;20402;-81
2022/04/16 02:43:34;;;;;;;3.20;2.90;;;8.50;94.30;;;7.33;72.48;98273.59;5070072;28;20399;-80
2022/04/16 02:48:46;;;;;;;4.68;3.13;;;8.50;94.20;;;7.26;72.25;98276.25;5070098;28;20473;-80
2022/04/16 02:51:12;;;;;;;6.70;3.40;;;8.40;94.80;;;7.19;72.27;98278.13;5069654;28;20457;-80
2022/04/16 02:53:38;;;;;;;3.60;3.00;;;8.30;94.80;;;7.14;72.00;98285.03;5069575;28;20431;-80
2022/04/16 02:56:04;;;;;;;4.70;3.10;;;8.20;95.00;;;7.06;72.81;98282.63;5069774;28;20871;-80
2022/04/16 02:58:30;;;;;;;3.38;3.08;;;8.20;95.60;;;6.97;73.32;98285.47;5073233;28;20399;-80
2022/04/16 03:00:56;;;;;;;3.83;2.90;;;8.20;95.70;;;6.94;73.77;98292.94;5073251;28;20453;-80
2022/04/16 03:03:22;;;;;;;3.22;2.90;;;8.10;96.10;;;6.86;74.23;98282.63;5073714;28;20483;-80
2022/04/16 03:05:49;;;;;;;3.97;3.22;;;8.00;96.40;;;6.88;73.10;98281.44;5073650;28;20404;-80
2022/04/16 03:08:15;;;;;;;3.80;2.85;;;8.00;95.90;;;6.80;74.04;98279.00;5073436;28;20407;-79
2022/04/16 03:10:41;;;;;;;3.97;3.43;;;8.00;96.40;;;6.83;73.01;98285.69;5073039;28;20476;-80
2022/04/16 03:13:07;;;;;;;6.18;3.22;;;8.00;96.10;;;6.76;73.54;98290.16;5073253;28;20399;-79
2022/04/16 03:18:18;;;;;;;3.40;3.10;;;7.90;96.40;;;6.64;73.92;98297.84;5073294;28;20399;-80
2022/04/16 03:20:44;;;;;;;3.60;3.03;;;7.80;96.60;;;6.57;74.29;98303.09;5072813;28;20400;-80
2022/04/16 03:23:12;;;;;;;3.60;3.00;;;7.70;96.80;;;6.51;74.65;98308.38;5073304;28;20396;-80
2022/04/16 03:25:43;;;;;;;3.58;3.20;;;7.70;97.10;;;6.46;74.62;98298.47;5055453;28;20487;-78
2022/04/16 03:28:10;;;;;;;4.07;3.25;;;7.60;97.20;;;6.41;75.29;98287.72;5073082;28;20511;-80
2022/04/16 03:30:36;;;;;;;4.28;3.45;;;7.60;97.50;;;6.38;75.76;98295.22;5072591;28;20403;-80
2022/04/16 03:33:02;;;;;;;4.03;3.00;;;7.50;98.00;;;6.40;75.58;98295.81;5072949;28;20404;-81
2022/04/16 03:35:28;;;;;;;3.38;3.08;;;7.60;98.10;;;6.43;76.63;98288.34;5073048;28;20811;-79
2022/04/16 03:37:54;;;;;;;4.93;3.42;;;7.60;98.90;;;6.52;77.50;98281.06;5071716;28;20403;-80
2022/04/16 03:40:26;;;;;;;3.80;3.30;;;7.60;99.70;;;6.67;76.88;98280.84;5072539;28;20454;-80
2022/04/16 03:42:56;;;;;;;3.97;3.10;;;7.80;99.50;;;6.74;77.68;98277.19;5072946;28;20403;-81
2022/04/16 03:45:24;;;;;;;3.95;3.55;;;7.90;99.90;;;6.80;77.81;98279.00;5072877;28;20440;-81
2022/04/16 03:47:51;;;;;;;3.80;3.00;;;7.90;99.90;;;6.90;77.96;98289.94;5072947;28;20826;-79
2022/04/16 03:50:19;;;;;;;3.72;3.30;;;8.00;99.90;;;6.96;78.16;98285.66;5072233;28;20402;-80
2022/04/16 03:52:47;;;;;;;3.33;3.03;;;8.10;99.90;;;7.03;78.04;98285.66;5072737;28;20443;-80
2022/04/16 04:00:45;;;;;;;5.10;4.03;;;8.30;99.90;;;7.25;75.48;98281.72;5072261;28;20475;-80
2022/04/16 04:03:11;;;;;;;4.85;3.35;;;8.30;99.50;;;7.22;76.18;98285.59;5072532;28;21032;-80
2022/04/16 04:05:38;;;;;;;4.43;3.38;;;8.30;99.40;;;7.16;76.19;98291.69;5072494;28;20391;-81
2022/04/16 04:08:05;;;;;;;4.65;3.38;;;8.30;99.40;;;7.15;75.77;98290.06;5071858;28;20885;-80
2022/04/16 04:10:31;;;;;;;3.17;2.83;;;8.20;99.20;;;7.09;76.11;98293.53;5071482;28;20468;-80
2022/04/16 04:12:58;;;;;;;3.92;3.15;;;8.20;99.40;;;7.09;76.39;98303.25;5072294;28;20410;-79
2022/04/16 04:15:26;;;;;;;3.85;3.28;;;8.20;99.50;;;7.06;76.71;98306.31;5079275;28;20426;-80
2022/04/16 04:17:52;;;;;;;3.70;3.30;;;8.10;99.70;;;7.02;76.88;98303.25;5086162;28;20396;-80
2022/04/16 04:20:18;;;;;;;3.60;3.10;;;8.10;99.90;;;6.99;76.81;98303.69;5083465;28;20902;-80
2022/04/16 04:22:44;;;;;;;4.53;3.60;;;8.10;99.90;;;6.95;76.64;98298.00;5092226;28;20402;-79
2022/04/16 04:25:10;;;;;;;5.33;4.03;;;8.00;99.60;;;6.86;76.28;98301.88;5092255;28;20405;-80
2022/04/16 04:27:36;;;;;;;5.10;3.60;;;8.00;99.40;;;6.80;76.02;98318.47;5089474;28;20489;-80
2022/04/16 04:30:04;;;;;;;4.95;3.58;;;7.90;99.30;;;6.84;74.52;98322.31;5083566;28;20398;-80
2022/04/16 04:32:30;;;;;;;4.82;3.60;;;7.90;98.60;;;6.71;76.00;98330.22;5091786;28;20409;-79
2022/04/16 04:34:57;;;;;;;4.47;3.35;;;7.80;99.20;;;6.61;76.37;98327.19;5091442;22;20766;-73
2022/04/16 04:37:23;;;;;;;4.00;3.53;;;7.70;99.50;;;6.66;74.55;98331.84;5076880;28;20421;-74
2022/04/16 04:39:49;;;;;;;4.53;3.40;;;7.70;98.70;;;6.58;75.96;98324.97;5083610;28;20532;-74
2022/04/16 04:42:23;;;;;;;4.15;3.55;;;7.70;99.20;;;6.54;76.83;98326.41;5091681;28;20440;-74
2022/04/16 04:44:48;;;;;;;3.83;3.42;;;7.60;99.80;;;6.51;77.10;98322.34;5092013;28;20427;-75
2022/04/16 04:47:16;;;;;;;3.80;3.40;;;7.60;99.90;;;6.54;77.39;98335.06;5092001;28;20405;-75
2022/04/16 04:49:42;;;;;;;4.45;3.42;;;7.60;99.90;;;6.57;77.49;98339.94;5091778;28;20468;-75
2022/04/16 04:52:07;;;;;;;4.05;3.35;;;7.70;99.90;;;6.67;76.96;98328.19;5091471;28;20401;-75
2022/04/16 04:54:33;;;;;;;4.82;3.47;;;7.70;99.90;;;6.72;77.61;98325.75;5090687;28;20410;-76
2022/04/16 04:56:59;;;;;;;4.80;3.77;;;7.80;99.90;;;6.79;76.71;98332.66;5091660;28;20406;-75
2022/04/16 04:59:25;;;;;;;4.45;3.65;;;7.90;99.90;;;6.87;77.37;98329.00;5091612;28;20390;-75
2022/04/16 05:01:51;;;;;;;4.97;3.37;;;7.90;99.90;;;6.92;77.28;98326.56;5091272;28;20406;-75
2022/04/16 05:04:18;;;;;;;4.28;3.65;;;8.00;99.90;;;7.02;76.95;98332.22;5091627;28;20397;-75
2022/04/16 05:06:44;;;;;;;3.50;3.20;;;8.10;99.90;;;7.10;77.28;98334.63;5091650;28;21000;-74
2022/04/16 05:09:10;;;;;;;5.55;3.50;;;8.10;99.90;;;7.16;77.93;98339.06;5074152;28;20432;-75
2022/04/16 05:11:36;;;;;;;5.03;3.90;;;8.20;99.90;;;7.32;77.51;98336.00;5070839;28;20461;-73
2022/04/16 05:14:02;;;;;;;5.15;3.10;;;8.30;99.90;;;7.41;77.71;98336.59;5052932;28;20408;-74
2022/04/16 05:16:28;;;;;;;4.50;3.00;;;8.40;99.90;;;7.50;77.40;98343.25;5071110;28;20410;-75
2022/04/16 05:18:54;;;;;;;3.22;2.85;;;8.50;99.90;;;7.57;77.43;98340.59;5052918;28;20502;-75
2022/04/16 05:21:21;;;;;;;3.33;2.85;;;8.60;99.90;;;7.64;77.24;98344.81;5070508;28;20602;-75
2022/04/16 05:23:47;;;;;;;4.47;3.38;;;8.70;99.90;;;7.76;75.85;98353.69;5070996;28;20415;-73
2022/04/16 05:26:13;;;;;;;4.95;3.42;;;8.80;99.70;;;7.82;74.27;98352.03;5071167;28;20470;-74
2022/04/16 05:28:39;;;;;;;4.50;3.33;;;8.90;98.80;;;7.89;73.52;98347.56;5070916;28;20423;-74
2022/04/16 05:31:07;;;;;;;5.47;3.20;;;8.90;98.60;;;7.90;75.21;98343.88;5070650;28;20395;-74
2022/04/16 05:36:19;;;;;;;4.90;3.30;;;9.00;99.10;;;8.09;73.71;98348.25;5070756;28;21268;-75
2022/04/16 05:38:46;;;;;;;3.35;3.05;;;9.10;98.30;;;8.16;73.32;98343.75;5070723;28;20473;-74
2022/04/16 05:41:12;;;;;;;4.38;3.05;;;9.20;97.90;;;8.25;73.19;98352.25;5070328;28;20492;-74
2022/04/16 05:43:38;;;;;;;7.80;3.80;;;9.30;97.70;;;8.35;73.04;98351.78;5070777;28;20809;-74
2022/04/16 05:46:04;;;;;;;3.83;3.28;;;9.30;97.60;;;8.41;72.12;98359.69;5070745;28;20391;-75
2022/04/16 05:48:30;;;;;;;3.78;3.22;;;9.40;97.00;;;8.48;71.74;98362.28;5070634;28;20408;-75
2022/04/16 05:50:57;;;;;;;3.53;3.20;;;9.50;96.60;;;8.57;71.47;98362.81;5070236;28;20463;-75
2022/04/16 05:53:23;;;;;;;4.57;3.50;;;9.60;96.30;;;8.62;67.94;98369.06;5070655;28;20504;-75
2022/04/16 05:55:51;;;;;;;4.50;3.33;;;9.60;94.40;;;8.68;69.37;98364.75;5070396;28;20416;-74
2022/04/16 05:58:17;;;;;;;4.07;3.08;;;9.70;94.70;;;8.77;69.78;98363.47;5070470;28;20465;-74
2022/04/16 06:00:44;;;;;;;4.07;3.53;;;9.70;95.20;;;8.84;68.01;98359.75;5069899;28;20553;-74
2022/04/16 06:03:10;;;;;;;4.63;3.28;;;9.80;94.10;;;8.90;69.30;98358.88;5070282;28;20411;-74
2022/04/16 06:05:36;;;;;;;4.55;4.00;;;9.90;94.50;;;8.98;68.55;98365.72;5070573;28;20395;-74
2022/04/16 06:08:03;;;;;;;4.45;3.65;;;10.00;94.30;;;9.06;68.60;98368.09;5077228;28;20497;-74
2022/04/16 06:10:29;;;;;;;5.47;3.45;;;10.00;94.20;;;9.13;68.63;98375.94;5074214;28;20406;-75
2022/04/16 06:13:02;;;;;;;4.82;3.42;;;10.10;94.00;;;9.18;67.58;98379.56;5069176;28;20399;-77
2022/04/16 06:15:30;;;;;;;3.90;3.47;;;10.10;93.50;;;9.21;67.47;98381.78;5069367;28;20422;-75
2022/04/16 06:17:57;;;;;;;3.97;3.42;;;10.20;93.30;;;9.25;66.96;98390.88;5067429;28;20403;-74
2022/04/16 06:20:23;;;;;;;4.67;3.60;;;10.20;92.90;;;9.28;67.80;98385.16;5074245;28;20751;-74
2022/04/16 06:22:49;;;;;;;6.05;3.90;;;10.20;93.00;;;9.28;66.04;98393.09;5070012;28;20892;-74
2022/04/16 06:25:15;;;;;;;4.20;3.42;;;10.20;92.30;;;9.30;66.94;98395.50;5079491;28;20403;-75
2022/04/16 06:27:41;;;;;;;4.60;3.57;;;10.20;92.50;;;9.33;66.08;98397.69;5080351;28;20679;-74
2022/04/16 06:30:10;;;;;;;4.55;3.75;;;10.30;92.30;;;9.37;66.17;98401.53;5069686;28;20547;-74
2022/04/16 06:32:37;;;;;;;3.72;3.30;;;10.30;92.20;;;9.39;65.99;98394.22;5069351;28;20426;-76
2022/04/16 06:35:05;;;;;;;5.15;3.30;;;10.30;92.20;;;9.44;66.51;98398.84;5069830;28;20407;-75
2022/04/16 06:37:32;;;;;;;5.30;3.70;;;10.40;92.10;;;9.46;64.95;98394.16;5069901;28;20396;-74
2022/04/16 06:39:58;;;;;;;5.75;3.70;;;10.40;91.40;;;9.44;65.11;98394.34;5069430;28;20426;-74
2022/04/16 06:42:24;;;;;;;5.13;3.45;;;10.40;91.10;;;9.47;65.43;98399.19;5069591;28;20417;-74
2022/04/16 06:44:50;;;;;;;4.00;3.47;;;10.40;91.20;;;9.51;64.95;98400.38;5056157;28;20511;-74
2022/04/16 06:47:17;;;;;;;4.40;3.80;;;10.50;91.00;;;9.55;65.18;98390.97;5049304;28;20642;-74
2022/04/16 06:49:43;;;;;;;4.18;3.42;;;10.50;91.10;;;9.61;64.79;98394.59;5049805;28;20397;-74
2022/04/16 06:52:09;;;;;;;6.28;4.07;;;10.60;91.10;;;9.65;64.86;98398.41;5049436;28;20909;-74
2022/04/16 06:54:36;;;;;;;5.10;4.00;;;10.60;90.70;;;9.68;63.90;98403.25;5049758;28;20459;-74
2022/04/16 06:57:02;;;;;;;4.80;3.90;;;10.60;90.40;;;9.73;64.33;98397.31;5049690;28;20408;-74
2022/04/16 06:59:28;;;;;;;7.40;4.47;;;10.60;90.40;;;9.74;63.50;98404.22;5049737;28;20459;-74
2022/04/16 07:01:53;;;;;;;6.90;4.68;;;10.70;89.80;;;9.73;63.57;98406.03;5049249;28;20409;-74
2022/04/16 07:04:21;;;;;;;5.93;4.60;;;10.70;89.10;;;9.60;62.49;98404.34;5049817;28;20407;-76
2022/04/16 07:06:47;;;;;;;7.18;4.50;;;10.50;87.30;;;9.59;63.47;98402.75;5050212;28;20406;-77
2022/04/16 07:09:13;;;;;;;5.53;4.03;;;10.50;88.70;;;9.61;63.58;98399.88;5050132;28;20433;-77
2022/04/16 07:11:38;;;;;;;6.45;4.25;;;10.50;89.40;;;9.63;63.32;98405.72;5079635;28;20501;-80
2022/04/16 07:14:04;;;;;;;5.38;4.10;;;10.60;88.90;;;9.70;63.32;98407.28;5080559;28;20490;-79
2022/04/16 07:16:30;;;;;;;5.33;4.00;;;10.60;89.00;;;9.79;63.21;98410.44;5067541;28;20419;-79
2022/04/16 07:18:56;;;;;;;5.20;4.13;;;10.70;88.50;;;9.89;63.27;98409.94;5081973;28;20411;-76
2022/04/16 07:21:24;;;;;;;4.70;4.10;;;10.80;88.70;;;10.00;63.03;98414.47;5067511;28;20417;-77
2022/04/16 07:23:49;;;;;;;6.88;4.60;;;10.90;88.40;;;10.11;62.95;98411.09;5065671;28;20407;-77
2022/04/16 07:26:15;;;;;;;7.50;4.40;;;11.00;88.00;;;10.17;62.56;98415.50;5067134;28;20904;-76
2022/04/16 07:28:41;;;;;;;5.25;4.47;;;11.10;87.50;;;10.25;62.53;98412.56;5066768;28;20400;-76
2022/04/16 07:31:07;;;;;;;5.47;4.37;;;11.20;87.30;;;10.27;61.34;98410.50;5066902;28;20414;-76
2022/04/16 07:33:33;;;;;;;6.50;4.63;;;11.20;86.00;;;10.32;61.42;98405.34;5065934;28;20400;-76
2022/04/16 07:35:59;;;;;;;5.82;4.70;;;11.30;85.80;;;10.38;61.44;98424.81;5068893;28;20427;-76
2022/04/16 07:38:27;;;;;;;6.87;4.47;;;11.30;85.60;;;10.39;61.83;98421.94;5071191;28;20411;-76
2022/04/16 07:40:54;;;;;;;7.68;5.28;;;11.30;85.80;;;10.41;61.84;98422.53;5071710;28;20396;-77
2022/04/16 07:43:20;;;;;;;6.05;4.82;;;11.30;85.90;;;10.42;61.40;98426.00;5065868;28;20423;-76
2022/04/16 07:45:46;;;;;;;6.50;5.35;;;11.30;85.30;;;10.32;60.97;98433.66;5074757;28;20418;-77
2022/04/16 07:48:12;;;;;;;8.55;5.65;;;11.30;84.00;;;10.36;61.19;98435.63;5072280;28;20901;-76
2022/04/16 07:50:38;;;;;;;8.70;5.93;;;11.30;84.70;;;10.33;60.96;98427.31;5068719;28;20450;-77
2022/04/16 07:53:06;;;;;;;9.80;5.63;;;11.20;83.80;;;10.37;60.77;98437.25;5067497;28;20462;-77
2022/04/16 07:55:34;;;;;;;8.35;5.43;;;11.30;84.20;;;10.41;61.60;98434.97;5072034;28;20408;-77
2022/04/16 07:58:00;;;;;;;6.25;4.93;;;11.30;84.90;;;10.51;61.15;98442.38;5074546;28;20521;-77
2022/04/16 08:00:26;;;;;;;8.88;5.43;;;11.40;85.00;;;10.51;61.21;98434.44;5073143;28;20805;-76
2022/04/16 08:02:52;;;;;;;8.30;5.70;;;11.40;84.50;;;10.59;61.47;98439.41;5074549;28;20900;-77
2022/04/16 08:05:18;;;;;;;6.65;4.95;;;11.50;85.10;;;10.72;61.14;98437.38;5070759;28;20411;-77
2022/04/16 08:07:44;;;;;;;7.72;5.20;;;11.60;85.20;;;10.80;61.02;98442.34;5084305;28;20403;-77
2022/04/16 08:10:11;;;;;;;9.23;5.40;;;11.70;84.30;;;10.89;60.13;98449.97;5080210;28;20399;-77
2022/04/16 08:12:38;;;;;;;7.10;5.10;;;11.70;83.40;;;10.96;60.22;98453.34;5069772;28;20396;-76
2022/04/16 08:15:06;;;;;;;7.55;5.57;;;11.80;83.20;;;11.09;60.31;98447.81;5086944;28;20414;-77
2022/04/16 08:17:32;;;;;;;8.20;5.78;;;11.90;83.20;;;11.24;60.56;98453.50;5092674;28;20408;-77
2022/04/16 08:19:58;;;;;;;7.47;5.47;;;12.10;83.40;;;11.52;60.24;98450.16;5092427;28;20779;-78
2022/04/16 08:22:24;;;;;;;6.15;5.00;;;12.30;83.40;;;11.65;59.40;98455.25;5090736;28;20807;-76
2022/04/16 08:27:42;;;;;;;9.73;6.13;;;12.60;81.00;;;11.78;58.54;98447.06;5063098;28;20870;-75
2022/04/16 08:30:10;;;;;;;7.47;5.47;;;12.70;80.00;;;12.01;58.53;98454.19;5092070;28;20405;-76
2022/04/16 08:32:36;;;;;;;8.57;5.75;;;12.80;80.40;;;11.94;58.13;98456.16;5075705;28;20400;-76
2022/04/16 08:35:03;;;;;;;6.60;5.22;;;12.70;79.60;;;12.04;58.16;98451.06;5071593;28;20627;-76
2022/04/16 08:37:29;;;;;;;8.85;5.43;;;12.80;80.00;;;12.07;57.37;98449.78;5056275;28;20403;-76
2022/04/16 08:39:55;;;;;;;7.80;5.75;;;12.90;78.60;;;12.15;57.91;98460.03;5089907;28;20415;-76
2022/04/16 08:42:22;;;;;;;8.03;5.40;;;13.00;79.00;;;12.30;58.21;98465.66;5090570;28;20402;-76
2022/04/16 08:44:50;;;;;;;8.85;6.00;;;13.10;79.30;;;12.29;57.26;98461.38;5071843;28;20427;-77
2022/04/16 08:47:17;;;;;;;7.97;5.85;;;13.10;77.80;;;12.54;57.06;98461.09;5072004;28;20928;-75
2022/04/16 08:49:44;;;;;;;7.57;5.20;;;13.30;78.60;;;12.68;57.18;98470.38;5071368;28;20402;-75
2022/04/16 08:52:10;;;;;;;7.07;4.90;;;13.50;78.10;;;12.80;56.75;98457.84;5071343;28;20503;-75
2022/04/16 08:54:38;;;;;;;7.65;5.20;;;13.60;77.50;;;12.85;56.45;98459.78;5071011;28;20426;-75
2022/04/16 08:57:05;;;;;;;7.78;5.40;;;13.70;77.00;;;13.02;56.69;98461.41;5071724;28;20396;-76
2022/04/16 08:59:30;;;;;;;10.50;6.28;;;13.80;77.10;;;12.95;55.49;98459.94;5070333;28;20853;-76
2022/04/16 09:01:59;;;;;;;6.97;5.15;;;13.70;75.00;;;13.11;55.64;98469.81;5071338;28;20442;-75
2022/04/16 09:04:31;;;;;;;6.82;5.18;;;13.90;76.10;;;13.11;56.10;98470.59;5069136;28;20780;-75
2022/04/16 09:06:58;;;;;;;7.10;5.60;;;13.90;76.10;;;13.10;55.34;98469.00;5078032;28;20406;-76
2022/04/16 09:09:24;;;;;;;7.50;5.15;;;13.90;75.30;;;13.23;55.71;98467.91;5067198;28;20415;-75
2022/04/16 09:11:51;;;;;;;9.20;6.40;;;14.00;75.70;;;13.08;54.70;98476.41;5079092;28;20396;-76
2022/04/16 09:14:16;;;;;;;8.32;6.35;;;13.90;73.50;;;13.02;53.67;98471.22;5074550;28;20447;-76
2022/04/16 09:16:43;;;;;;;9.30;6.65;;;13.80;72.00;;;12.99;54.03;98477.84;5056499;28;20413;-75
2022/04/16 09:19:16;;;;;;;8.20;6.57;;;13.80;72.40;;;12.95;53.55;98478.56;5081455;28;20394;-76
2022/04/16 09:21:43;;;;;;;8.77;6.43;;;13.80;71.60;;;12.99;53.23;98474.38;5089065;28;20763;-76
2022/04/16 09:24:12;;;;;;;9.75;6.38;;;13.70;71.40;;;13.05;53.86;98484.88;5089384;28;20394;-76
2022/04/16 09:26:39;;;;;;;8.63;6.50;;;13.80;72.10;;;13.11;53.46;98477.78;5089311;28;20443;-77
2022/04/16 09:29:07;;;;;;;9.25;6.43;;;13.80;71.30;;;13.11;53.11;98478.59;5089225;28;20394;-76
2022/04/16 09:31:34;;;;;;;10.15;7.25;;;13.90;70.70;;;13.03;53.05;98483.47;5088845;28;20883;-76
2022/04/16 09:34:01;;;;;;;10.35;8.00;;;13.90;70.20;;;13.09;53.94;98471.88;5089806;28;20878;-76
2022/04/16 09:36:28;;;;;;;11.57;7.82;;;13.90;71.40;;;13.02;53.50;98480.00;5073085;28;20463;-76
2022/04/16 09:39:05;;;;;;;10.77;8.00;;;13.80;71.00;;;12.96;54.63;98474.84;5091167;28;20971;-76
2022/04/16 09:41:33;;;;;;;11.40;8.43;;;13.70;72.50;;;12.98;54.02;98473.56;5090437;28;20402;-75
2022/04/16 09:43:59;;;;;;;12.47;8.20;;;13.80;71.90;;;12.92;54.47;98476.41;5090860;28;20848;-75
2022/04/16 09:46:28;;;;;;;12.13;8.32;;;13.70;72.00;;;12.78;54.08;98478.50;5090761;28;20401;-76
2022/04/16 09:49:01;;;;;;;11.25;7.30;;;13.60;71.60;;;12.79;54.21;98480.94;5090739;28;20480;-75
2022/04/16 09:51:33;;;;;;;11.18;7.72;;;13.60;72.00;;;12.76;53.78;98481.44;5090425;28;20402;-74
2022/04/16 09:54:01;;;;;;;11.75;7.75;;;13.50;71.40;;;12.58;54.26;98478.16;5090924;28;20394;-75
2022/04/16 09:56:29;;;;;;;10.90;7.82;;;13.40;71.80;;;12.67;54.64;98487.34;5090677;28;20422;-75
2022/04/16 09:58:57;;;;;;;10.77;7.82;;;13.50;73.10;;;12.66;54.87;98491.06;5091255;28;20404;-74
2022/04/16 10:01:24;;;;;;;10.47;7.67;;;13.40;73.10;;;12.45;55.09;98484.56;5093101;28;20409;-74
2022/04/16 10:03:54;;;;;;;9.98;7.65;;;13.30;72.80;;;12.40;54.51;98484.47;5092829;28;20413;-75
2022/04/16 10:06:21;;;;;;;11.67;8.03;;;13.20;72.50;;;12.40;54.86;98492.44;5094442;28;20394;-75
2022/04/16 10:08:49;;;;;;;11.53;8.10;;;13.20;73.30;;;12.40;55.98;98492.44;5092618;28;20401;-75
2022/04/16 10:11:20;;;;;;;9.73;6.85;;;13.20;74.60;;;12.41;54.89;98492.16;5080037;28;20401;-75
2022/04/16 10:14:00;;;;;;;10.00;6.80;;;13.20;73.30;;;12.46;53.34;98498.63;5081355;28;20390;-76
2022/04/16 10:16:34;;;;;;;7.13;5.57;;;13.30;71.00;;;12.70;53.41;98500.19;5052922;28;20411;-76
2022/04/16 10:19:00;;;;;;;9.23;6.82;;;13.50;71.50;;;12.92;53.35;98505.63;5083725;28;20401;-76
2022/04/16 10:21:33;;;;;;;8.80;6.07;;;13.70;71.00;;;13.24;52.54;98498.75;5065250;28;20780;-77
2022/04/16 10:24:01;;;;;;;10.93;6.68;;;14.00;69.80;;;13.50;51.48;98506.13;5066129;28;20435;-77
2022/04/16 10:26:37;;;;;;;8.70;6.60;;;14.30;68.30;;;14.05;51.62;98501.88;5085559;28;20782;-76
2022/04/16 10:29:03;;;;;;;9.85;6.78;;;14.80;68.70;;;14.40;50.33;98509.53;5079249;28;20394;-77
2022/04/16 10:31:32;;;;;;;9.70;6.80;;;15.10;66.50;;;14.49;48.66;98516.03;5083256;28;20404;-77
2022/04/16 10:34:01;;;;;;;8.30;6.10;;;15.20;64.30;;;14.61;48.59;98511.38;5084323;22;20428;-77
2022/04/16 10:36:32;;;;;;;9.30;6.97;;;15.20;63.50;;;14.12;47.86;98510.47;5078969;28;20406;-75
2022/04/16 10:38:59;;;;;;;8.57;6.45;;;14.90;61.60;;;14.18;48.41;98507.63;5076760;28;20392;-75
2022/04/16 10:41:28;;;;;;;10.85;7.10;;;15.00;63.10;;;14.24;48.98;98511.97;5086884;28;20814;-77